Time;durP1;ratioP1;P1;durP2;ratioP2;P2;SDS_P1;SDS_P2;PMS_P1;PMS_P2;Temp;Humidity;BMP_temperature;BMP_pressure;BME280_temperature;BME280_humidity;BME280_pressure;Samples;Min_cycle;Max_cycle;Signal;HPM_P1;HPM_P2
2022/10/29 00:00:53;;;;;;;;;;;13.90;87.60;;;;;;5053814;28;19972;-89
2022/10/29 00:03:18;;;;;;;;;;;13.80;87.10;;;;;;5053760;28;19940;-89
2022/10/29 00:05:53;;;;;;;;;;;13.80;87.00;;;;;;5053708;28;19952;-88
2022/10/29 00:08:18;;;;;;;;;;;13.80;87.30;;;;;;5053480;28;19944;-88
2022/10/29 00:10:44;;;;;;;;;;;13.80;87.90;;;;;;5053618;28;19968;-88
2022/10/29 00:13:09;;;;;;;;;;;13.70;86.80;;;;;;5053541;28;20013;-89
2022/10/29 00:15:39;;;;;;;;;;;13.80;87.20;;;;;;5053540;28;19940;-88
2022/10/29 00:18:04;;;;;;;;;;;13.70;87.20;;;;;;5053197;28;19974;-88
2022/10/29 00:20:30;;;;;;;;;;;13.70;87.50;;;;;;5053432;28;19950;-88
2022/10/29 00:22:55;;;;;;;;;;;13.70;87.40;;;;;;5053469;28;19940;-89
2022/10/29 00:25:21;;;;;;;;;;;13.70;86.80;;;;;;5052120;28;19950;-88
2022/10/29 00:27:46;;;;;;;;;;;13.60;86.10;;;;;;5053123;28;20040;-89
2022/10/29 00:30:12;;;;;;;;;;;13.60;86.00;;;;;;5053119;28;20066;-88
2022/10/29 00:32:38;;;;;;;;;;;13.60;86.00;;;;;;5053237;28;19960;-88
2022/10/29 00:35:03;;;;;;;;;;;13.60;86.10;;;;;;5051984;28;19946;-88
2022/10/29 00:37:29;;;;;;;;;;;13.50;86.30;;;;;;5052991;28;19956;-88
2022/10/29 00:39:54;;;;;;;;;;;13.50;86.70;;;;;;5052890;28;20017;-89
2022/10/29 00:42:20;;;;;;;;;;;13.40;87.20;;;;;;5053142;28;20339;-89
2022/10/29 00:44:45;;;;;;;;;;;13.40;87.60;;;;;;5053097;28;19991;-88
2022/10/29 00:47:37;;;;;;;;;;;13.40;88.20;;;;;;5052845;28;19994;-88
2022/10/29 00:50:05;;;;;;;;;;;13.40;89.30;;;;;;5046784;28;19948;-88
2022/10/29 00:52:32;;;;;;;;;;;13.40;88.50;;;;;;5052824;28;20515;-88
2022/10/29 00:55:00;;;;;;;;;;;13.30;88.00;;;;;;5053029;28;19960;-88
2022/10/29 00:57:28;;;;;;;;;;;13.30;86.70;;;;;;5052432;28;19949;-88
2022/10/29 00:59:54;;;;;;;;;;;13.30;86.10;;;;;;5052955;28;20420;-88
2022/10/29 01:02:21;;;;;;;;;;;13.30;86.70;;;;;;5052954;28;19938;-87
2022/10/29 01:04:46;;;;;;;;;;;13.30;89.50;;;;;;5052938;28;20392;-88
2022/10/29 01:07:12;;;;;;;;;;;13.20;89.40;;;;;;5052675;28;19954;-87
2022/10/29 01:09:38;;;;;;;;;;;13.10;90.40;;;;;;5052614;28;19949;-88
2022/10/29 01:12:03;;;;;;;;;;;13.10;90.90;;;;;;5052660;28;19963;-88
2022/10/29 01:14:34;;;;;;;;;;;13.00;90.90;;;;;;5052844;28;19939;-88
2022/10/29 01:17:09;;;;;;;;;;;13.00;91.50;;;;;;5051198;28;20487;-88
2022/10/29 01:19:35;;;;;;;;;;;12.90;92.10;;;;;;5051522;28;19950;-88
2022/10/29 01:22:00;;;;;;;;;;;12.90;92.70;;;;;;5052757;28;20078;-88
2022/10/29 01:24:45;;;;;;;;;;;12.90;92.60;;;;;;5052530;28;19952;-88
2022/10/29 01:27:30;;;;;;;;;;;13.00;92.60;;;;;;5053262;28;20043;-88
2022/10/29 01:30:04;;;;;;;;;;;13.00;92.70;;;;;;5052575;28;19971;-88
2022/10/29 01:32:38;;;;;;;;;;;13.10;92.30;;;;;;5051340;28;20054;-89
2022/10/29 01:35:14;;;;;;;;;;;13.20;92.30;;;;;;5052400;28;20030;-88
2022/10/29 01:37:48;;;;;;;;;;;13.20;92.20;;;;;;5052692;28;20055;-88
2022/10/29 01:40:20;;;;;;;;;;;13.30;91.80;;;;;;5052646;28;19993;-88
2022/10/29 01:42:47;;;;;;;;;;;13.30;90.70;;;;;;5052590;28;19992;-88
2022/10/29 01:45:19;;;;;;;;;;;13.30;89.50;;;;;;5052297;28;20520;-89
2022/10/29 01:47:48;;;;;;;;;;;13.20;88.00;;;;;;5052544;28;20283;-89
2022/10/29 01:50:17;;;;;;;;;;;13.30;88.20;;;;;;5052499;28;20304;-88
2022/10/29 01:52:43;;;;;;;;;;;13.30;88.70;;;;;;5051908;28;19964;-88
2022/10/29 01:55:09;;;;;;;;;;;13.30;89.10;;;;;;5051162;28;20323;-88
2022/10/29 01:57:36;;;;;;;;;;;13.20;89.00;;;;;;5052769;28;19940;-88
2022/10/29 02:00:05;;;;;;;;;;;13.20;88.60;;;;;;5052441;28;20295;-88
2022/10/29 02:02:49;;;;;;;;;;;13.20;87.40;;;;;;5052173;28;19955;-88
2022/10/29 02:05:25;;;;;;;;;;;13.10;87.10;;;;;;5052417;28;19938;-88
2022/10/29 02:07:57;;;;;;;;;;;13.10;87.10;;;;;;5052395;28;19946;-88
2022/10/29 02:10:28;;;;;;;;;;;13.10;87.00;;;;;;5054319;28;19955;-88
2022/10/29 02:12:55;;;;;;;;;;;13.10;87.40;;;;;;5054498;28;20062;-89
2022/10/29 02:15:38;;;;;;;;;;;13.10;87.40;;;;;;5055834;28;19995;-88
2022/10/29 02:18:05;;;;;;;;;;;13.10;87.50;;;;;;5056112;28;19938;-88
2022/10/29 02:20:31;;;;;;;;;;;13.20;88.60;;;;;;5055484;28;19951;-88
2022/10/29 02:22:57;;;;;;;;;;;13.10;88.50;;;;;;5055932;28;20080;-88
2022/10/29 02:25:22;;;;;;;;;;;13.10;88.00;;;;;;5055693;28;19950;-88
2022/10/29 02:27:48;;;;;;;;;;;13.10;86.70;;;;;;5055870;28;20032;-88
2022/10/29 02:30:13;;;;;;;;;;;13.00;86.70;;;;;;5054846;28;20441;-88
2022/10/29 02:32:39;;;;;;;;;;;13.00;86.70;;;;;;5055223;28;19967;-88
2022/10/29 02:35:05;;;;;;;;;;;13.00;87.00;;;;;;5055511;28;19990;-87
2022/10/29 02:37:31;;;;;;;;;;;13.00;88.70;;;;;;5055442;28;19944;-88
2022/10/29 02:39:56;;;;;;;;;;;12.90;89.20;;;;;;5055161;28;20388;-88
2022/10/29 02:42:22;;;;;;;;;;;12.70;88.70;;;;;;5055379;28;20361;-88
2022/10/29 02:44:47;;;;;;;;;;;12.50;88.50;;;;;;5053974;28;20038;-88
2022/10/29 02:47:13;;;;;;;;;;;12.50;89.30;;;;;;5053942;28;19941;-88
2022/10/29 02:49:38;;;;;;;;;;;12.40;89.60;;;;;;5054924;28;19949;-88
2022/10/29 02:52:04;;;;;;;;;;;12.30;90.50;;;;;;5054856;28;19974;-88
2022/10/29 02:54:30;;;;;;;;;;;12.30;90.60;;;;;;5055169;28;19937;-88
2022/10/29 02:56:55;;;;;;;;;;;12.40;90.80;;;;;;5039347;28;19968;-88
2022/10/29 02:59:21;;;;;;;;;;;12.50;90.30;;;;;;5039837;28;20312;-89
2022/10/29 03:01:46;;;;;;;;;;;12.60;90.30;;;;;;5054962;28;19939;-88
2022/10/29 03:04:12;;;;;;;;;;;12.60;89.80;;;;;;5054958;28;19961;-88
2022/10/29 03:06:37;;;;;;;;;;;12.60;88.60;;;;;;5054898;28;19988;-88
2022/10/29 03:09:03;;;;;;;;;;;12.70;88.60;;;;;;5054402;28;19998;-88
2022/10/29 03:11:28;;;;;;;;;;;12.70;88.60;;;;;;5053481;28;20044;-88
2022/10/29 03:13:54;;;;;;;;;;;12.70;88.50;;;;;;5054759;28;20529;-88
2022/10/29 03:16:20;;;;;;;;;;;12.70;88.30;;;;;;5054696;28;19945;-88
2022/10/29 03:18:45;;;;;;;;;;;12.60;88.20;;;;;;5054695;28;19940;-88
2022/10/29 03:21:11;;;;;;;;;;;12.60;88.20;;;;;;5053919;28;19951;-88
2022/10/29 03:23:36;;;;;;;;;;;12.60;88.80;;;;;;5054825;28;20035;-88
2022/10/29 03:26:02;;;;;;;;;;;12.60;87.80;;;;;;5054543;28;20316;-88
2022/10/29 03:28:29;;;;;;;;;;;12.60;87.70;;;;;;5054302;28;19988;-88
2022/10/29 03:30:55;;;;;;;;;;;12.50;87.60;;;;;;5054323;28;20409;-88
2022/10/29 03:33:21;;;;;;;;;;;12.40;87.30;;;;;;5054424;28;19979;-88
2022/10/29 03:35:46;;;;;;;;;;;12.50;87.60;;;;;;5054389;28;19975;-88
2022/10/29 03:38:12;;;;;;;;;;;12.40;86.50;;;;;;5054248;28;19998;-88
2022/10/29 03:40:38;;;;;;;;;;;12.40;86.40;;;;;;5053891;28;20047;-88
2022/10/29 03:43:03;;;;;;;;;;;12.50;87.10;;;;;;5054048;28;19944;-88
2022/10/29 03:45:29;;;;;;;;;;;12.50;86.90;;;;;;5054139;28;19992;-88
2022/10/29 03:47:55;;;;;;;;;;;12.60;87.10;;;;;;5054027;28;20047;-89
2022/10/29 03:50:21;;;;;;;;;;;12.50;87.20;;;;;;5053761;28;20069;-88
2022/10/29 03:52:46;;;;;;;;;;;12.50;87.80;;;;;;5053728;28;20030;-88
2022/10/29 03:55:12;;;;;;;;;;;12.40;88.50;;;;;;5053928;28;19943;-88
2022/10/29 03:57:38;;;;;;;;;;;12.40;88.60;;;;;;5053895;28;19938;-88
2022/10/29 04:00:03;;;;;;;;;;;12.30;88.70;;;;;;5053457;28;19939;-88
2022/10/29 04:02:29;;;;;;;;;;;12.10;89.20;;;;;;5054114;28;19946;-87
2022/10/29 04:04:55;;;;;;;;;;;12.10;89.50;;;;;;5053770;28;19976;-88
2022/10/29 04:07:20;;;;;;;;;;;12.00;89.80;;;;;;5053726;28;20048;-88
2022/10/29 04:09:46;;;;;;;;;;;12.00;90.40;;;;;;5053634;28;19955;-88
2022/10/29 04:12:12;;;;;;;;;;;12.00;90.60;;;;;;5053466;28;19984;-88
2022/10/29 04:14:37;;;;;;;;;;;12.00;90.30;;;;;;5053608;28;19946;-88
2022/10/29 04:17:03;;;;;;;;;;;12.10;90.30;;;;;;5053569;28;19943;-88
2022/10/29 04:19:28;;;;;;;;;;;12.10;89.70;;;;;;5053342;28;20104;-88
2022/10/29 04:21:54;;;;;;;;;;;12.20;89.10;;;;;;5053546;28;19942;-88
2022/10/29 04:24:19;;;;;;;;;;;12.20;88.90;;;;;;5053415;28;20053;-88
2022/10/29 04:26:45;;;;;;;;;;;12.30;87.90;;;;;;5053405;28;19937;-88
2022/10/29 04:29:11;;;;;;;;;;;12.30;87.90;;;;;;5052737;28;20356;-88
2022/10/29 04:31:36;;;;;;;;;;;12.30;87.60;;;;;;5052665;28;20303;-88
2022/10/29 04:34:02;;;;;;;;;;;12.30;87.30;;;;;;5053091;28;20307;-87
2022/10/29 04:36:27;;;;;;;;;;;12.10;87.10;;;;;;5053303;28;20309;-88
2022/10/29 04:38:53;;;;;;;;;;;12.00;88.50;;;;;;5051767;28;20303;-88
2022/10/29 04:41:18;;;;;;;;;;;11.90;89.10;;;;;;5053218;28;20296;-87
2022/10/29 04:43:44;;;;;;;;;;;11.80;90.00;;;;;;5053136;28;20308;-88
2022/10/29 04:46:10;;;;;;;;;;;11.80;90.10;;;;;;5053112;28;19939;-88
2022/10/29 04:48:36;;;;;;;;;;;11.70;90.10;;;;;;5052882;28;20365;-87
2022/10/29 04:51:01;;;;;;;;;;;11.60;90.20;;;;;;5052759;28;19965;-88
2022/10/29 04:53:27;;;;;;;;;;;11.60;91.00;;;;;;5052881;28;19940;-88
2022/10/29 04:55:58;;;;;;;;;;;11.40;90.60;;;;;;5053113;28;19935;-87
2022/10/29 04:58:23;;;;;;;;;;;11.40;91.50;;;;;;5052506;28;20392;-88
2022/10/29 05:00:49;;;;;;;;;;;11.40;91.10;;;;;;5052977;28;19949;-88
2022/10/29 05:03:14;;;;;;;;;;;11.30;92.50;;;;;;5052923;28;20039;-87
2022/10/29 05:05:40;;;;;;;;;;;11.20;91.70;;;;;;5053222;28;19938;-87
2022/10/29 05:08:06;;;;;;;;;;;11.10;91.30;;;;;;5052740;28;19993;-88
2022/10/29 05:10:33;;;;;;;;;;;11.10;93.30;;;;;;5052610;28;19946;-88
2022/10/29 05:12:59;;;;;;;;;;;11.20;92.70;;;;;;5053064;28;19965;-88
2022/10/29 05:15:26;;;;;;;;;;;11.20;93.80;;;;;;5052863;28;19936;-87
2022/10/29 05:17:51;;;;;;;;;;;11.30;93.20;;;;;;5052638;28;19954;-87
2022/10/29 05:20:17;;;;;;;;;;;11.40;93.20;;;;;;5052779;28;19948;-87
2022/10/29 05:22:42;;;;;;;;;;;11.40;92.90;;;;;;5052791;28;20234;-88
2022/10/29 05:25:08;;;;;;;;;;;11.40;92.40;;;;;;5052739;28;19945;-87
2022/10/29 05:27:33;;;;;;;;;;;11.40;92.00;;;;;;5037690;28;20313;-88
2022/10/29 05:29:59;;;;;;;;;;;11.30;91.70;;;;;;5051804;28;20356;-87
2022/10/29 05:32:27;;;;;;;;;;;11.40;91.50;;;;;;5052659;28;19990;-87
2022/10/29 05:34:52;;;;;;;;;;;11.40;92.00;;;;;;5052350;28;19949;-87
2022/10/29 05:37:18;;;;;;;;;;;11.40;92.20;;;;;;5052652;28;20285;-87
2022/10/29 05:39:43;;;;;;;;;;;11.60;92.20;;;;;;5052546;28;20461;-88
2022/10/29 05:42:09;;;;;;;;;;;11.70;91.70;;;;;;5052608;28;20320;-87
2022/10/29 05:44:34;;;;;;;;;;;11.80;91.00;;;;;;5055062;28;20353;-87
2022/10/29 05:47:00;;;;;;;;;;;11.80;90.00;;;;;;5055918;28;19937;-87
2022/10/29 05:49:25;;;;;;;;;;;11.60;90.80;;;;;;5055631;28;19946;-87
2022/10/29 05:51:51;;;;;;;;;;;11.50;89.80;;;;;;5055221;28;19968;-88
2022/10/29 05:54:17;;;;;;;;;;;11.50;89.80;;;;;;5054684;28;20015;-87
2022/10/29 05:56:43;;;;;;;;;;;11.40;90.20;;;;;;5055595;28;20339;-87
2022/10/29 05:59:08;;;;;;;;;;;11.30;90.30;;;;;;5055330;28;20431;-87
2022/10/29 06:01:34;;;;;;;;;;;11.30;90.30;;;;;;5055145;28;20017;-87
2022/10/29 06:04:00;;;;;;;;;;;11.50;90.60;;;;;;5055877;28;20339;-86
2022/10/29 06:06:26;;;;;;;;;;;11.50;90.70;;;;;;5055462;28;20470;-87
2022/10/29 06:08:51;;;;;;;;;;;11.40;90.40;;;;;;5055905;28;20031;-87
2022/10/29 06:11:17;;;;;;;;;;;11.40;90.50;;;;;;5055284;28;20361;-87
2022/10/29 06:13:42;;;;;;;;;;;11.30;90.00;;;;;;5055894;28;20448;-87
2022/10/29 06:16:08;;;;;;;;;;;11.20;90.00;;;;;;5055610;28;19951;-87
2022/10/29 06:18:33;;;;;;;;;;;11.20;90.20;;;;;;5055724;28;19948;-87
2022/10/29 06:20:59;;;;;;;;;;;11.40;90.40;;;;;;5055338;28;19948;-87
2022/10/29 06:23:25;;;;;;;;;;;11.60;90.10;;;;;;5054966;28;20404;-87
2022/10/29 06:25:51;;;;;;;;;;;11.60;90.20;;;;;;5054944;28;19937;-87
2022/10/29 06:28:17;;;;;;;;;;;11.70;90.20;;;;;;5063823;22;19954;-88
2022/10/29 06:30:47;;;;;;;;;;;11.80;90.40;;;;;;5073027;28;19983;-87
2022/10/29 06:33:13;;;;;;;;;;;11.80;90.00;;;;;;5075292;28;19973;-87
2022/10/29 06:35:39;;;;;;;;;;;11.80;90.00;;;;;;5074641;28;19943;-87
2022/10/29 06:38:04;;;;;;;;;;;11.70;90.00;;;;;;5073911;28;20408;-87
2022/10/29 06:40:30;;;;;;;;;;;11.90;90.50;;;;;;5075080;28;20415;-88
2022/10/29 06:43:02;;;;;;;;;;;12.10;90.60;;;;;;5074788;28;20430;-88
2022/10/29 06:45:28;;;;;;;;;;;12.20;90.10;;;;;;5075310;28;19986;-87
2022/10/29 06:47:54;;;;;;;;;;;12.30;89.80;;;;;;5075219;28;19942;-88
2022/10/29 06:50:20;;;;;;;;;;;12.30;89.20;;;;;;5074239;28;20010;-87
2022/10/29 06:52:59;;;;;;;;;;;12.20;89.70;;;;;;5073981;28;20068;-88
2022/10/29 06:55:25;;;;;;;;;;;12.10;89.40;;;;;;5073545;28;19949;-87
2022/10/29 06:58:00;;;;;;;;;;;12.00;90.60;;;;;;5074991;28;20410;-87
2022/10/29 07:00:27;;;;;;;;;;;12.00;90.80;;;;;;5074274;28;19956;-87
2022/10/29 07:02:53;;;;;;;;;;;12.10;91.30;;;;;;5074675;28;19946;-88
2022/10/29 07:05:18;;;;;;;;;;;12.20;91.50;;;;;;5074946;28;20450;-88
2022/10/29 07:07:44;;;;;;;;;;;12.30;91.70;;;;;;5074880;28;19950;-87
2022/10/29 07:10:09;;;;;;;;;;;12.40;91.50;;;;;;5074449;28;19945;-87
2022/10/29 07:12:38;;;;;;;;;;;12.60;91.50;;;;;;5074313;28;20002;-88
2022/10/29 07:15:04;;;;;;;;;;;12.80;91.40;;;;;;5073302;28;20377;-88
2022/10/29 07:17:30;;;;;;;;;;;12.90;91.50;;;;;;5074708;28;20032;-88
2022/10/29 07:19:55;;;;;;;;;;;12.80;91.60;;;;;;5073156;28;19946;-88
2022/10/29 07:22:21;;;;;;;;;;;12.80;91.70;;;;;;5074505;28;20000;-88
2022/10/29 07:24:46;;;;;;;;;;;12.90;92.00;;;;;;5065040;28;20034;-88
2022/10/29 07:27:12;;;;;;;;;;;12.90;92.20;;;;;;5074253;28;20000;-87
2022/10/29 07:29:37;;;;;;;;;;;13.10;92.00;;;;;;5074386;28;19985;-88
2022/10/29 07:32:03;;;;;;;;;;;13.20;92.00;;;;;;5074294;28;20414;-88
2022/10/29 07:34:28;;;;;;;;;;;13.30;91.90;;;;;;5074336;28;20029;-88
2022/10/29 07:36:54;;;;;;;;;;;13.40;91.60;;;;;;5073020;28;20009;-87
2022/10/29 07:39:20;;;;;;;;;;;13.60;91.20;;;;;;5071071;28;20463;-88
2022/10/29 07:41:45;;;;;;;;;;;13.80;90.90;;;;;;5072779;28;19947;-88
2022/10/29 07:44:11;;;;;;;;;;;14.00;90.60;;;;;;5074358;28;20139;-87
2022/10/29 07:46:36;;;;;;;;;;;14.10;90.30;;;;;;5074105;28;19976;-87
2022/10/29 07:49:02;;;;;;;;;;;14.30;89.90;;;;;;5073162;28;19979;-88
2022/10/29 07:51:27;;;;;;;;;;;14.30;89.30;;;;;;5073732;28;19973;-88
2022/10/29 07:53:53;;;;;;;;;;;14.40;89.10;;;;;;5073742;28;19944;-88
2022/10/29 07:56:18;;;;;;;;;;;14.60;88.70;;;;;;5073814;28;19967;-88
2022/10/29 07:58:44;;;;;;;;;;;14.70;88.50;;;;;;5073555;28;19970;-88
2022/10/29 08:01:10;;;;;;;;;;;14.80;88.00;;;;;;5073781;28;19942;-87
2022/10/29 08:03:35;;;;;;;;;;;14.80;88.10;;;;;;5073784;28;19980;-87
2022/10/29 08:06:01;;;;;;;;;;;14.90;88.00;;;;;;5073642;28;20419;-87
2022/10/29 08:08:26;;;;;;;;;;;14.90;87.40;;;;;;5071838;28;20459;-88
2022/10/29 08:10:52;;;;;;;;;;;15.10;87.70;;;;;;5073226;28;19952;-87
2022/10/29 08:13:17;;;;;;;;;;;15.20;87.10;;;;;;5073528;28;19940;-87
2022/10/29 08:15:44;;;;;;;;;;;15.30;86.80;;;;;;5073894;28;19950;-88
2022/10/29 08:18:13;;;;;;;;;;;15.30;86.60;;;;;;5073316;28;19954;-88
2022/10/29 08:20:39;;;;;;;;;;;15.40;86.70;;;;;;5073404;28;20039;-88
2022/10/29 08:23:04;;;;;;;;;;;15.40;86.70;;;;;;5073746;28;20025;-87
2022/10/29 08:25:30;;;;;;;;;;;15.50;86.20;;;;;;5073145;28;20448;-88
2022/10/29 08:28:02;;;;;;;;;;;15.60;86.10;;;;;;5073346;28;20397;-88
2022/10/29 08:30:28;;;;;;;;;;;15.60;85.40;;;;;;5073183;28;19950;-87
2022/10/29 08:32:54;;;;;;;;;;;15.70;85.70;;;;;;5073228;28;19960;-88
2022/10/29 08:35:20;;;;;;;;;;;15.80;85.80;;;;;;5070387;28;20001;-88
2022/10/29 08:37:45;;;;;;;;;;;15.80;85.50;;;;;;5073157;28;19938;-88
2022/10/29 08:40:26;;;;;;;;;;;15.90;85.50;;;;;;5073225;28;19933;-87
2022/10/29 08:43:10;;;;;;;;;;;15.90;85.30;;;;;;5073865;28;19990;-88
2022/10/29 08:45:54;;;;;;;;;;;16.10;85.40;;;;;;5072742;28;20426;-88
2022/10/29 08:48:25;;;;;;;;;;;16.10;85.40;;;;;;5073476;28;19966;-88
2022/10/29 08:51:00;;;;;;;;;;;16.20;84.40;;;;;;5073071;28;19943;-88
2022/10/29 08:53:30;;;;;;;;;;;16.30;83.70;;;;;;5072976;28;20478;-87
2022/10/29 08:55:56;;;;;;;;;;;16.30;84.30;;;;;;5072500;28;20038;-88
2022/10/29 08:58:26;;;;;;;;;;;16.40;83.90;;;;;;5069440;28;19984;-88
2022/10/29 09:00:54;;;;;;;;;;;16.40;84.10;;;;;;5073083;28;20048;-87
2022/10/29 09:03:20;;;;;;;;;;;16.60;84.10;;;;;;5073019;28;20397;-88
2022/10/29 09:06:03;;;;;;;;;;;16.60;84.20;;;;;;5072728;28;19956;-88
2022/10/29 09:08:29;;;;;;;;;;;16.70;83.60;;;;;;5072965;28;20556;-87
2022/10/29 09:10:55;;;;;;;;;;;16.80;82.50;;;;;;5072986;28;20205;-88
2022/10/29 09:13:39;;;;;;;;;;;16.90;82.30;;;;;;5073179;28;19960;-88
2022/10/29 09:16:28;;;;;;;;;;;17.00;81.90;;;;;;5072208;28;19952;-89
2022/10/29 09:18:57;;;;;;;;;;;17.00;80.40;;;;;;5063685;28;19943;-87
2022/10/29 09:21:27;;;;;;;;;;;17.10;80.40;;;;;;5076909;28;19946;-88
2022/10/29 09:24:08;;;;;;;;;;;17.20;79.30;;;;;;5075649;28;20418;-88
2022/10/29 09:26:52;;;;;;;;;;;17.30;78.40;;;;;;5076189;28;20395;-88
2022/10/29 09:29:44;;;;;;;;;;;17.30;77.20;;;;;;5076612;28;19974;-88
2022/10/29 09:32:21;;;;;;;;;;;17.40;78.40;;;;;;5056611;28;19970;-88
2022/10/29 09:34:53;;;;;;;;;;;17.60;77.70;;;;;;5061856;28;20457;-87
2022/10/29 09:37:27;;;;;;;;;;;17.80;76.30;;;;;;5076661;28;19947;-88
2022/10/29 09:39:55;;;;;;;;;;;17.80;76.60;;;;;;5076539;28;20432;-88
2022/10/29 09:42:33;;;;;;;;;;;18.00;76.00;;;;;;5076550;28;19942;-88
2022/10/29 09:45:01;;;;;;;;;;;18.30;75.40;;;;;;5075920;28;19950;-87
2022/10/29 09:47:26;;;;;;;;;;;18.30;75.70;;;;;;5075877;28;19986;-88
2022/10/29 09:50:04;;;;;;;;;;;18.50;75.80;;;;;;5075578;28;20546;-88
2022/10/29 09:52:32;;;;;;;;;;;18.60;75.20;;;;;;5076051;28;20056;-87
2022/10/29 09:54:59;;;;;;;;;;;18.80;73.00;;;;;;5075444;28;20021;-88
2022/10/29 09:57:28;;;;;;;;;;;18.80;75.20;;;;;;5076164;28;19994;-88
2022/10/29 10:00:00;;;;;;;;;;;18.90;75.70;;;;;;5076451;28;19944;-87
2022/10/29 10:02:42;;;;;;;;;;;19.00;73.50;;;;;;5076056;28;20289;-88
2022/10/29 10:05:14;;;;;;;;;;;19.00;73.20;;;;;;5075764;28;19942;-89
2022/10/29 10:07:40;;;;;;;;;;;19.10;73.60;;;;;;5076075;28;19973;-88
2022/10/29 10:10:07;;;;;;;;;;;19.20;72.20;;;;;;5075925;28;19944;-89
2022/10/29 10:12:35;;;;;;;;;;;19.30;72.30;;;;;;5075846;28;19970;-89
2022/10/29 10:15:02;;;;;;;;;;;19.50;71.90;;;;;;5069959;28;19961;-89
2022/10/29 10:17:30;;;;;;;;;;;19.60;71.90;;;;;;5092021;28;19951;-89
2022/10/29 10:19:56;;;;;;;;;;;19.80;72.00;;;;;;5075588;28;20310;-89
2022/10/29 10:22:23;;;;;;;;;;;19.80;70.10;;;;;;5075645;28;19951;-89
2022/10/29 10:24:49;;;;;;;;;;;19.80;69.60;;;;;;5075574;28;19941;-89
2022/10/29 10:27:17;;;;;;;;;;;20.00;70.80;;;;;;5075624;28;19953;-89
2022/10/29 10:30:03;;;;;;;;;;;20.10;69.40;;;;;;5074543;28;20514;-89
2022/10/29 10:32:29;;;;;;;;;;;20.30;70.30;;;;;;5071226;28;20041;-90
2022/10/29 10:34:55;;;;;;;;;;;20.40;69.80;;;;;;5075236;28;19994;-89
2022/10/29 10:37:20;;;;;;;;;;;20.50;69.40;;;;;;5075200;28;19948;-89
2022/10/29 10:39:48;;;;;;;;;;;20.60;68.90;;;;;;5075417;28;19940;-89
2022/10/29 10:42:23;;;;;;;;;;;20.80;67.20;;;;;;5075392;28;19945;-89
2022/10/29 10:44:51;;;;;;;;;;;20.80;64.60;;;;;;5075191;28;20453;-88
2022/10/29 10:47:19;;;;;;;;;;;20.90;64.20;;;;;;5075369;28;19955;-89
2022/10/29 10:49:44;;;;;;;;;;;21.10;64.30;;;;;;5075247;28;19972;-89
2022/10/29 10:52:30;;;;;;;;;;;21.30;64.50;;;;;;5074952;28;20013;-89
2022/10/29 10:55:00;;;;;;;;;;;21.40;63.10;;;;;;5074964;28;19940;-89
2022/10/29 10:57:30;;;;;;;;;;;21.60;62.50;;;;;;5075024;28;19945;-89
2022/10/29 11:00:00;;;;;;;;;;;21.70;62.30;;;;;;5075120;28;19939;-88
2022/10/29 11:02:46;;;;;;;;;;;21.80;60.90;;;;;;5075109;28;20019;-88
2022/10/29 11:05:21;;;;;;;;;;;21.80;59.90;;;;;;5073756;28;20391;-89
2022/10/29 11:07:51;;;;;;;;;;;22.10;59.40;;;;;;5074940;28;20383;-89
2022/10/29 11:10:17;;;;;;;;;;;22.30;58.80;;;;;;5074881;28;20374;-90
2022/10/29 11:12:47;;;;;;;;;;;22.40;58.30;;;;;;5075103;28;20059;-89
2022/10/29 11:15:16;;;;;;;;;;;22.60;58.30;;;;;;5074213;28;19947;-89
2022/10/29 11:17:48;;;;;;;;;;;22.60;57.50;;;;;;5075004;28;19949;-89
2022/10/29 11:20:22;;;;;;;;;;;22.80;57.60;;;;;;5074734;28;19942;-89
2022/10/29 11:23:03;;;;;;;;;;;22.90;56.80;;;;;;5074670;28;19944;-89
2022/10/29 11:25:47;;;;;;;;;;;23.00;56.40;;;;;;5074443;28;19993;-89
2022/10/29 11:28:12;;;;;;;;;;;23.30;55.50;;;;;;5074421;28;19943;-89
2022/10/29 11:30:41;;;;;;;;;;;23.60;56.00;;;;;;5074321;28;19970;-89
2022/10/29 11:33:17;;;;;;;;;;;23.90;54.20;;;;;;5074346;28;19972;-89
2022/10/29 11:35:52;;;;;;;;;;;24.20;53.30;;;;;;5073906;28;19947;-89
2022/10/29 11:38:20;;;;;;;;;;;24.10;53.00;;;;;;5074358;28;19945;-89
2022/10/29 11:40:51;;;;;;;;;;;24.30;53.60;;;;;;5074076;28;20038;-89
2022/10/29 11:43:18;;;;;;;;;;;24.20;52.60;;;;;;5074244;28;20404;-89
2022/10/29 11:45:53;;;;;;;;;;;24.70;52.40;;;;;;5073748;28;20041;-89
2022/10/29 11:48:21;;;;;;;;;;;25.30;51.10;;;;;;5074166;28;19945;-89
2022/10/29 11:50:56;;;;;;;;;;;25.90;50.80;;;;;;5073853;28;19942;-89
2022/10/29 11:53:21;;;;;;;;;;;26.60;48.00;;;;;;5073889;28;20320;-89
2022/10/29 11:55:50;;;;;;;;;;;27.40;45.60;;;;;;5072327;28;19948;-89
2022/10/29 11:58:18;;;;;;;;;;;28.00;44.60;;;;;;5074501;28;19950;-89
2022/10/29 12:00:56;;;;;;;;;;;28.50;43.00;;;;;;5072709;28;19951;-89
2022/10/29 12:03:24;;;;;;;;;;;29.00;41.70;;;;;;5073926;28;19995;-90
2022/10/29 12:05:50;;;;;;;;;;;29.30;40.10;;;;;;5073569;28;19951;-89
2022/10/29 12:08:34;;;;;;;;;;;29.20;40.50;;;;;;5073796;28;20368;-89
2022/10/29 12:10:59;;;;;;;;;;;29.40;39.00;;;;;;5073718;28;19940;-89
2022/10/29 12:13:25;;;;;;;;;;;29.80;38.20;;;;;;5073547;28;20311;-89
2022/10/29 12:15:59;;;;;;;;;;;30.10;38.90;;;;;;5073360;28;20328;-89
2022/10/29 12:18:24;;;;;;;;;;;30.30;38.10;;;;;;5073570;28;20313;-89
2022/10/29 12:20:50;;;;;;;;;;;30.00;37.70;;;;;;5073604;28;20399;-89
2022/10/29 12:23:42;;;;;;;;;;;30.40;37.80;;;;;;5073545;28;20300;-89
2022/10/29 12:26:11;;;;;;;;;;;31.20;37.20;;;;;;5064773;28;19950;-89
2022/10/29 12:28:52;;;;;;;;;;;32.30;35.10;;;;;;5073350;28;20017;-90
2022/10/29 12:31:27;;;;;;;;;;;32.10;35.00;;;;;;5072085;28;19966;-90
2022/10/29 12:34:05;;;;;;;;;;;32.50;34.50;;;;;;5073374;28;19999;-90
2022/10/29 12:36:55;;;;;;;;;;;32.00;36.20;;;;;;5063233;28;19944;-89
2022/10/29 12:39:26;;;;;;;;;;;31.20;36.60;;;;;;5073443;28;19949;-90
2022/10/29 12:41:56;;;;;;;;;;;30.60;37.30;;;;;;5073315;28;19938;-89
2022/10/29 12:44:41;;;;;;;;;;;30.20;38.30;;;;;;5073308;28;19941;-90
2022/10/29 12:47:06;;;;;;;;;;;30.10;38.40;;;;;;5073096;28;20008;-89
2022/10/29 12:49:38;;;;;;;;;;;30.30;38.00;;;;;;5073307;28;20355;-90
2022/10/29 12:52:09;;;;;;;;;;;30.50;37.50;;;;;;5072847;28;19981;-89
2022/10/29 12:54:42;;;;;;;;;;;30.90;38.40;;;;;;5072441;28;19947;-89
2022/10/29 12:57:14;;;;;;;;;;;30.80;38.30;;;;;;5072858;28;19946;-89
2022/10/29 12:59:40;;;;;;;;;;;30.60;38.20;;;;;;5073133;28;19935;-89
2022/10/29 13:02:18;;;;;;;;;;;30.00;39.00;;;;;;5073059;28;19942;-90
2022/10/29 13:05:02;;;;;;;;;;;30.20;40.00;;;;;;5073126;28;19955;-89
2022/10/29 13:07:28;;;;;;;;;;;30.50;39.10;;;;;;5073103;28;20028;-89
2022/10/29 13:10:12;;;;;;;;;;;31.10;37.80;;;;;;5073026;28;20369;-89
2022/10/29 13:12:56;;;;;;;;;;;31.20;37.20;;;;;;5073134;28;19967;-89
2022/10/29 13:15:23;;;;;;;;;;;31.40;36.90;;;;;;5071452;28;19946;-89
2022/10/29 13:17:50;;;;;;;;;;;31.00;37.60;;;;;;5072968;28;20038;-89
2022/10/29 13:20:18;;;;;;;;;;;31.20;37.70;;;;;;5072888;28;19942;-89
2022/10/29 13:22:50;;;;;;;;;;;30.90;37.70;;;;;;5072864;28;19942;-89
2022/10/29 13:25:37;;;;;;;;;;;31.30;36.90;;;;;;5072647;28;19948;-89
2022/10/29 13:28:09;;;;;;;;;;;31.60;37.00;;;;;;5072586;28;19944;-89
2022/10/29 13:30:35;;;;;;;;;;;32.10;36.20;;;;;;5072276;28;19977;-90
2022/10/29 13:33:21;;;;;;;;;;;32.20;36.30;;;;;;5072171;28;20335;-89
2022/10/29 13:35:56;;;;;;;;;;;31.60;36.90;;;;;;5072700;28;19940;-89
2022/10/29 13:38:30;;;;;;;;;;;32.00;37.80;;;;;;5072723;28;19963;-89
2022/10/29 13:41:31;;;;;;;;;;;31.60;37.50;;;;;;5071004;28;20025;-89
2022/10/29 13:43:59;;;;;;;;;;;31.20;37.90;;;;;;5057979;28;19952;-89
2022/10/29 13:46:31;;;;;;;;;;;31.10;38.20;;;;;;5072558;28;20309;-89
2022/10/29 13:48:59;;;;;;;;;;;31.00;37.90;;;;;;5071306;28;19996;-89
2022/10/29 13:51:32;;;;;;;;;;;30.70;38.10;;;;;;5072190;28;19957;-89
2022/10/29 13:54:01;;;;;;;;;;;30.70;38.20;;;;;;5072612;28;19946;-90
2022/10/29 13:56:40;;;;;;;;;;;31.20;37.20;;;;;;5072549;28;19952;-89
2022/10/29 13:59:10;;;;;;;;;;;31.70;36.20;;;;;;5072552;28;19944;-89
2022/10/29 14:01:36;;;;;;;;;;;31.90;36.30;;;;;;5071783;28;19936;-90
2022/10/29 14:04:14;;;;;;;;;;;32.00;36.10;;;;;;5072425;28;19958;-90
2022/10/29 14:06:40;;;;;;;;;;;32.30;35.30;;;;;;5076138;28;20307;-89
2022/10/29 14:09:06;;;;;;;;;;;32.70;34.90;;;;;;5076331;28;19946;-90
2022/10/29 14:11:37;;;;;;;;;;;33.60;33.50;;;;;;5075705;28;19943;-90
2022/10/29 14:14:03;;;;;;;;;;;32.90;34.40;;;;;;5075985;28;20405;-89
2022/10/29 14:16:31;;;;;;;;;;;32.50;35.60;;;;;;5076016;28;19940;-89
2022/10/29 14:18:57;;;;;;;;;;;31.70;37.50;;;;;;5075865;28;19943;-89
2022/10/29 14:21:22;;;;;;;;;;;31.70;37.20;;;;;;5075488;28;19949;-90
2022/10/29 14:23:54;;;;;;;;;;;31.70;37.10;;;;;;5075888;28;20412;-89
2022/10/29 14:26:19;;;;;;;;;;;31.50;37.50;;;;;;5075793;28;20410;-89